createdAt,value
2018-09-18T00:01:49.044Z,49.16
2018-09-18T00:04:17.484Z,48.49
2018-09-18T00:06:45.976Z,48.44
2018-09-18T00:09:14.389Z,48.41
2018-09-18T00:11:43.181Z,49.42
2018-09-18T00:14:12.260Z,49.04
2018-09-18T00:16:40.744Z,48.89
2018-09-18T00:19:09.485Z,48.64
2018-09-18T00:21:37.880Z,49.95
2018-09-18T00:24:06.798Z,48.93
2018-09-18T00:26:35.263Z,49.23
2018-09-18T00:29:03.763Z,48.92
2018-09-18T00:31:32.171Z,49.56
2018-09-18T00:34:00.734Z,49.88
2018-09-18T00:36:29.159Z,49.31
2018-09-18T00:38:58.144Z,49.34
2018-09-18T00:41:27.286Z,49.71
2018-09-18T00:43:55.730Z,49.71
2018-09-18T00:46:24.276Z,49.70
2018-09-18T00:48:52.858Z,49.81
2018-09-18T00:51:21.450Z,49.38
2018-09-18T00:53:50.581Z,49.99
2018-09-18T00:56:19.728Z,50.32
2018-09-18T00:58:48.278Z,50.54
2018-09-18T01:01:16.716Z,50.38
2018-09-18T01:03:45.141Z,50.46
2018-09-18T01:06:13.603Z,50.21
2018-09-18T01:08:42.200Z,50.37
2018-09-18T01:11:10.928Z,50.75
2018-09-18T01:13:39.498Z,51.13
2018-09-18T01:16:08.104Z,51.21
2018-09-18T01:18:40.259Z,51.17
2018-09-18T01:21:10.153Z,51.23
2018-09-18T01:23:38.751Z,51.52
2018-09-18T01:26:07.332Z,51.40
2018-09-18T01:28:36.791Z,50.63
2018-09-18T01:31:05.680Z,51.37
2018-09-18T01:33:34.471Z,50.96
2018-09-18T01:36:03.040Z,51.88
2018-09-18T01:38:31.969Z,51.39
2018-09-18T01:41:00.674Z,51.87
2018-09-18T01:43:29.677Z,52.06
2018-09-18T01:45:58.172Z,51.94
2018-09-18T01:48:26.724Z,51.77
2018-09-18T01:50:55.913Z,52.61
2018-09-18T01:53:24.376Z,52.32
2018-09-18T01:55:52.793Z,51.92
2018-09-18T01:58:21.292Z,52.46
2018-09-18T02:00:50.120Z,52.51
2018-09-18T02:03:18.777Z,52.70
2018-09-18T02:05:47.366Z,53.42
2018-09-18T02:08:15.966Z,53.34
2018-09-18T02:10:44.406Z,53.40
2018-09-18T02:13:12.964Z,52.90
2018-09-18T02:15:41.413Z,53.51
2018-09-18T02:18:09.856Z,53.35
2018-09-18T02:20:38.411Z,54.04
2018-09-18T02:23:07.447Z,53.91
2018-09-18T02:25:35.879Z,53.90
2018-09-18T02:28:04.361Z,54.41
2018-09-18T02:30:32.820Z,54.21
2018-09-18T02:33:01.454Z,54.10
2018-09-18T02:35:30.111Z,54.50
2018-09-18T02:37:58.501Z,55.39
2018-09-18T02:40:27.045Z,54.69
2018-09-18T02:42:56.078Z,54.76
2018-09-18T02:45:24.573Z,55.60
2018-09-18T02:47:53.008Z,54.99
2018-09-18T02:50:21.550Z,55.73
2018-09-18T02:52:49.940Z,55.66
2018-09-18T02:55:18.495Z,55.33
2018-09-18T02:57:47.043Z,56.33
2018-09-18T03:00:15.773Z,56.28
2018-09-18T03:02:44.187Z,56.21
2018-09-18T03:05:12.778Z,56.14
2018-09-18T03:07:41.308Z,56.37
2018-09-18T03:10:09.828Z,56.39
2018-09-18T03:12:38.261Z,56.10
2018-09-18T03:15:09.902Z,56.63
2018-09-18T03:17:38.464Z,56.32
2018-09-18T03:20:06.920Z,56.73
2018-09-18T03:22:35.408Z,56.88
2018-09-18T03:25:04.287Z,56.27
2018-09-18T03:27:33.021Z,57.17
2018-09-18T03:30:01.414Z,57.46
2018-09-18T03:32:30.025Z,57.10
2018-09-18T03:34:58.542Z,57.67
2018-09-18T03:37:27.189Z,57.50
2018-09-18T03:39:55.604Z,57.72
2018-09-18T03:42:24.002Z,57.92
2018-09-18T03:44:52.551Z,57.35
2018-09-18T03:47:21.763Z,58.05
2018-09-18T03:49:52.290Z,57.91
2018-09-18T03:52:20.714Z,58.21
2018-09-18T03:54:49.355Z,58.13
2018-09-18T03:57:18.300Z,58.56
2018-09-18T03:59:46.915Z,58.36
2018-09-18T04:02:16.050Z,59.24
2018-09-18T04:04:44.717Z,58.93
2018-09-18T04:07:13.267Z,59.37
2018-09-18T04:09:41.752Z,58.93
2018-09-18T04:12:10.195Z,59.13
2018-09-18T04:14:38.630Z,59.50
2018-09-18T04:17:07.204Z,59.42
2018-09-18T04:19:35.772Z,59.96
2018-09-18T04:22:04.222Z,59.10
2018-09-18T04:24:32.649Z,60.14
2018-09-18T04:27:01.129Z,59.89
2018-09-18T04:29:29.568Z,60.01
2018-09-18T04:31:57.985Z,60.14
2018-09-18T04:34:26.562Z,60.15
2018-09-18T04:36:55.045Z,60.20
2018-09-18T04:39:23.636Z,60.34
2018-09-18T04:41:52.121Z,60.68
2018-09-18T04:44:20.585Z,60.35
2018-09-18T04:46:49.576Z,59.97
2018-09-18T04:49:18.071Z,60.07
2018-09-18T04:51:46.592Z,60.30
2018-09-18T04:54:21.737Z,60.78
2018-09-18T04:56:50.308Z,60.79
2018-09-18T04:59:18.830Z,61.25
2018-09-18T05:01:47.292Z,60.14
2018-09-18T05:04:15.986Z,60.64
2018-09-18T05:06:44.436Z,60.48
2018-09-18T05:09:13.867Z,61.10
2018-09-18T05:11:42.310Z,60.14
2018-09-18T05:14:10.744Z,60.88
2018-09-18T05:16:39.153Z,61.81
2018-09-18T05:19:08.799Z,61.16
2018-09-18T05:21:37.436Z,60.74
2018-09-18T05:24:05.837Z,61.63
2018-09-18T05:26:35.412Z,61.02
2018-09-18T05:29:03.925Z,60.83
2018-09-18T05:31:32.524Z,60.73
2018-09-18T05:34:02.096Z,60.71
2018-09-18T05:36:30.825Z,60.75
2018-09-18T05:39:14.041Z,60.81
2018-09-18T05:41:42.565Z,61.52
2018-09-18T05:44:11.172Z,61.42
2018-09-18T05:46:39.604Z,61.70
2018-09-18T05:49:08.088Z,61.16
2018-09-18T05:51:36.704Z,61.07
2018-09-18T05:54:05.273Z,61.30
2018-09-18T05:56:33.843Z,61.38
2018-09-18T05:59:02.409Z,60.83
2018-09-18T06:01:30.968Z,60.72
2018-09-18T06:03:59.453Z,60.51
2018-09-18T06:06:28.221Z,60.47
2018-09-18T06:08:56.722Z,60.95
2018-09-18T06:11:25.460Z,61.13
2018-09-18T06:13:54.056Z,60.37
2018-09-18T06:16:22.769Z,60.20
2018-09-18T06:18:51.398Z,61.02
2018-09-18T06:21:19.868Z,60.18
2018-09-18T06:23:48.437Z,59.72
2018-09-18T06:26:17.422Z,59.67
2018-09-18T06:28:46.214Z,60.33
2018-09-18T06:31:14.800Z,60.40
2018-09-18T06:33:43.428Z,59.66
2018-09-18T06:36:11.981Z,59.52
2018-09-18T06:38:40.423Z,59.27
2018-09-18T06:41:09.097Z,59.66
2018-09-18T06:43:37.712Z,59.68
2018-09-18T06:46:06.296Z,59.73
2018-09-18T06:48:35.949Z,59.91
2018-09-18T06:51:05.013Z,59.14
2018-09-18T06:53:33.572Z,59.02
2018-09-18T06:56:03.655Z,59.12
2018-09-18T06:58:32.251Z,59.05
2018-09-18T07:01:00.783Z,58.53
2018-09-18T07:03:29.468Z,58.78
2018-09-18T07:05:58.080Z,58.37
2018-09-18T07:08:26.613Z,58.96
2018-09-18T07:10:55.137Z,59.13
2018-09-18T07:13:23.580Z,58.79
2018-09-18T07:15:52.120Z,58.44
2018-09-18T07:18:20.541Z,58.46
2018-09-18T07:20:49.117Z,58.74
2018-09-18T07:23:17.766Z,57.71
2018-09-18T07:25:46.233Z,58.15
2018-09-18T07:28:15.835Z,57.32
2018-09-18T07:30:44.965Z,57.85
2018-09-18T07:33:14.052Z,57.72
2018-09-18T07:35:42.508Z,57.64
2018-09-18T07:38:10.952Z,56.70
2018-09-18T07:40:39.609Z,56.41
2018-09-18T07:43:08.050Z,57.03
2018-09-18T07:45:36.676Z,56.46
2018-09-18T07:48:05.244Z,56.62
2018-09-18T07:50:33.845Z,56.48
2018-09-18T07:53:02.761Z,55.57
2018-09-18T07:55:31.198Z,55.45
2018-09-18T07:57:59.777Z,55.65
2018-09-18T08:00:28.446Z,54.98
2018-09-18T08:02:56.998Z,54.35
2018-09-18T08:05:26.301Z,55.18
2018-09-18T08:07:54.845Z,54.58
2018-09-18T08:10:24.844Z,54.55
2018-09-18T08:12:53.408Z,53.22
2018-09-18T08:15:21.816Z,53.39
2018-09-18T08:17:50.455Z,53.05
2018-09-18T08:20:19.018Z,53.22
2018-09-18T08:22:47.597Z,53.46
2018-09-18T08:25:16.824Z,53.17
2018-09-18T08:27:45.295Z,52.83
2018-09-18T08:30:13.829Z,51.69
2018-09-18T08:32:42.604Z,52.75
2018-09-18T08:35:10.930Z,51.82
2018-09-18T08:37:39.407Z,52.11
2018-09-18T08:40:08.195Z,52.05
2018-09-18T08:42:36.967Z,50.98
2018-09-18T08:45:05.828Z,51.82
2018-09-18T08:47:34.971Z,51.69
2018-09-18T08:50:03.531Z,51.04
2018-09-18T08:52:32.264Z,51.24
2018-09-18T08:55:00.712Z,50.18
2018-09-18T08:57:29.298Z,50.07
2018-09-18T08:59:57.823Z,50.18
2018-09-18T09:02:26.418Z,50.36
2018-09-18T09:04:54.945Z,49.77
2018-09-18T09:07:23.605Z,50.02
2018-09-18T09:09:52.085Z,49.80
2018-09-18T09:12:21.210Z,49.66
2018-09-18T09:14:49.732Z,48.98
2018-09-18T09:17:18.344Z,48.44
2018-09-18T09:19:46.954Z,48.92
2018-09-18T09:22:16.064Z,48.79
2018-09-18T09:24:44.484Z,49.57
2018-09-18T09:27:12.981Z,49.99
2018-09-18T09:29:41.677Z,50.33
2018-09-18T09:32:13.856Z,50.07
2018-09-18T09:34:42.801Z,49.59
2018-09-18T09:37:11.414Z,49.81
2018-09-18T09:39:39.874Z,49.29
2018-09-18T09:42:08.526Z,49.96
2018-09-18T09:44:37.077Z,50.18
2018-09-18T09:47:05.717Z,50.42
2018-09-18T09:49:34.432Z,49.52
2018-09-18T09:52:02.926Z,49.71
2018-09-18T09:54:31.383Z,49.19
2018-09-18T09:57:00.072Z,49.65
2018-09-18T09:59:29.547Z,49.13
2018-09-18T10:02:03.213Z,49.24
2018-09-18T10:04:32.029Z,49.41
2018-09-18T10:07:00.846Z,49.32
2018-09-18T10:09:29.472Z,49.11
2018-09-18T10:11:57.987Z,48.99
2018-09-18T10:14:26.549Z,47.76
2018-09-18T10:16:55.249Z,48.27
2018-09-18T10:19:23.675Z,47.66
2018-09-18T10:21:52.159Z,47.70
2018-09-18T10:24:20.766Z,47.99
2018-09-18T10:26:49.303Z,46.80
2018-09-18T10:29:17.713Z,46.86
2018-09-18T10:31:46.184Z,46.84
